createdAt,value
2022-08-24T00:01:40.514Z,4.78
2022-08-24T00:04:28.258Z,5.25
2022-08-24T00:07:27.435Z,4.88
2022-08-24T00:10:15.151Z,5.30
2022-08-24T00:13:08.472Z,5.57
2022-08-24T00:15:55.848Z,5.20
2022-08-24T00:18:50.609Z,4.75
2022-08-24T00:21:44.407Z,4.97
2022-08-24T00:24:38.597Z,4.80
2022-08-24T00:27:32.296Z,4.80
2022-08-24T00:30:26.500Z,5.18
2022-08-24T00:33:13.661Z,5.15
2022-08-24T00:36:07.718Z,5.07
2022-08-24T00:38:54.891Z,5.40
2022-08-24T00:41:49.582Z,4.43
2022-08-24T00:44:43.381Z,4.70
2022-08-24T00:47:49.596Z,5.30
2022-08-24T00:50:44.132Z,4.80
2022-08-24T00:53:43.714Z,4.70
2022-08-24T00:59:27.620Z,5.35
2022-08-24T01:02:15.924Z,5.05
2022-08-24T01:05:15.739Z,5.65
2022-08-24T01:11:00.692Z,5.30
2022-08-24T01:13:47.940Z,5.28
2022-08-24T01:16:42.778Z,5.22
2022-08-24T01:19:48.417Z,4.97
2022-08-24T01:23:04.668Z,4.95
2022-08-24T01:25:53.353Z,4.90
2022-08-24T01:28:47.627Z,4.85
2022-08-24T01:31:36.511Z,4.82
2022-08-24T01:34:31.678Z,5.07
2022-08-24T01:37:18.807Z,5.57
2022-08-24T01:40:13.687Z,5.60
2022-08-24T01:43:00.869Z,6.50
2022-08-24T01:46:01.609Z,5.63
2022-08-24T01:48:48.888Z,5.15
2022-08-24T01:51:42.542Z,4.20
2022-08-24T01:54:30.041Z,4.43
2022-08-24T01:57:23.667Z,3.78
2022-08-24T02:00:10.904Z,4.10
2022-08-24T02:03:04.774Z,4.30
2022-08-24T02:05:52.051Z,4.10
2022-08-24T02:08:46.714Z,5.28
2022-08-24T02:11:33.933Z,5.25
2022-08-24T02:14:30.583Z,5.43
2022-08-24T02:17:18.929Z,5.45
2022-08-24T02:20:12.708Z,5.90
2022-08-24T02:23:00.004Z,5.43
2022-08-24T02:25:54.644Z,5.07
2022-08-24T02:28:41.925Z,5.40
2022-08-24T02:31:36.622Z,4.72
2022-08-24T02:34:24.098Z,5.22
2022-08-24T02:37:17.676Z,5.45
2022-08-24T02:40:04.893Z,4.30
2022-08-24T02:42:58.544Z,5.00
2022-08-24T02:46:06.449Z,4.68
2022-08-24T02:49:10.688Z,5.40
2022-08-24T02:51:59.980Z,5.53
2022-08-24T02:54:53.662Z,5.47
2022-08-24T02:57:40.822Z,5.30
2022-08-24T03:00:36.680Z,6.68
2022-08-24T03:03:23.959Z,5.82
2022-08-24T03:06:17.563Z,5.93
2022-08-24T03:09:04.817Z,5.93
2022-08-24T03:11:58.683Z,5.82
2022-08-24T03:14:45.852Z,5.40
2022-08-24T03:17:40.008Z,5.70
2022-08-24T03:20:31.527Z,5.68
2022-08-24T03:23:25.722Z,5.38
2022-08-24T03:26:13.124Z,4.30
2022-08-24T03:29:06.545Z,5.53
2022-08-24T03:31:54.160Z,6.20
2022-08-24T03:34:47.547Z,5.72
2022-08-24T03:37:34.809Z,3.90
2022-08-24T03:40:28.699Z,3.72
2022-08-24T03:43:15.938Z,3.97
2022-08-24T03:46:15.625Z,4.18
2022-08-24T03:49:02.791Z,4.25
2022-08-24T03:51:56.686Z,5.68
2022-08-24T03:54:43.774Z,5.57
2022-08-24T03:57:37.664Z,5.80
2022-08-24T04:00:27.109Z,4.88
2022-08-24T04:03:20.641Z,4.75
2022-08-24T04:06:07.730Z,5.53
2022-08-24T04:09:02.772Z,6.03
2022-08-24T04:11:51.831Z,5.45
2022-08-24T04:14:46.691Z,5.97
2022-08-24T04:17:33.809Z,6.50
2022-08-24T04:20:27.710Z,6.50
2022-08-24T04:23:14.859Z,6.90
2022-08-24T04:26:08.668Z,6.03
2022-08-24T04:28:55.763Z,5.47
2022-08-24T04:31:49.706Z,5.75
2022-08-24T04:34:37.581Z,6.35
2022-08-24T04:37:31.690Z,3.97
2022-08-24T04:40:19.379Z,5.45
2022-08-24T04:43:17.798Z,5.05
2022-08-24T04:46:14.529Z,5.80
2022-08-24T04:49:08.701Z,5.40
2022-08-24T04:51:55.844Z,5.80
2022-08-24T04:54:49.636Z,4.88
2022-08-24T04:57:36.730Z,5.60
2022-08-24T05:00:31.704Z,6.28
2022-08-24T05:03:19.345Z,6.22
2022-08-24T05:06:14.699Z,6.40
2022-08-24T05:09:01.972Z,5.45
2022-08-24T05:11:55.702Z,6.30
2022-08-24T05:14:42.791Z,5.53
2022-08-24T05:17:36.613Z,5.57
2022-08-24T05:20:24.069Z,5.53
2022-08-24T05:23:18.965Z,4.10
2022-08-24T05:26:06.057Z,3.90
2022-08-24T05:28:59.684Z,3.50
2022-08-24T05:31:47.546Z,3.65
2022-08-24T05:34:41.695Z,4.65
2022-08-24T05:37:28.790Z,4.63
2022-08-24T05:40:22.754Z,5.25
2022-08-24T05:43:09.951Z,4.70
2022-08-24T05:46:10.712Z,4.88
2022-08-24T05:49:04.494Z,5.35
2022-08-24T05:51:58.877Z,5.13
2022-08-24T05:54:46.054Z,5.10
2022-08-24T05:57:39.707Z,5.60
2022-08-24T06:00:27.253Z,5.50
2022-08-24T06:03:21.601Z,5.55
2022-08-24T06:06:08.727Z,4.93
2022-08-24T06:09:03.685Z,4.13
2022-08-24T06:11:55.399Z,4.88
2022-08-24T06:14:49.731Z,4.38
2022-08-24T06:17:36.946Z,4.90
2022-08-24T06:20:31.793Z,4.63
2022-08-24T06:23:18.887Z,4.72
2022-08-24T06:26:15.428Z,5.25
2022-08-24T06:29:03.535Z,5.35
2022-08-24T06:31:57.750Z,4.50
2022-08-24T06:34:45.251Z,5.07
2022-08-24T06:37:39.004Z,4.55
2022-08-24T06:40:26.479Z,3.45
2022-08-24T06:43:20.788Z,3.40
2022-08-24T06:46:32.607Z,4.07
2022-08-24T06:49:26.796Z,3.05
2022-08-24T06:52:13.916Z,3.20
2022-08-24T06:55:07.693Z,2.95
2022-08-24T06:57:54.792Z,2.95
2022-08-24T07:00:48.753Z,2.75
2022-08-24T07:03:37.198Z,2.20
2022-08-24T07:06:32.456Z,2.50
2022-08-24T07:09:19.812Z,2.08
2022-08-24T07:12:13.801Z,2.65
2022-08-24T07:15:00.890Z,2.10
2022-08-24T07:17:54.733Z,2.13
2022-08-24T07:20:41.966Z,1.92
2022-08-24T07:23:41.342Z,2.20
2022-08-24T07:26:31.487Z,2.13
2022-08-24T07:32:33.943Z,2.10
2022-08-24T07:35:27.790Z,2.13
2022-08-24T07:38:15.244Z,2.22
2022-08-24T07:41:38.103Z,1.83
2022-08-24T07:44:19.931Z,1.65
2022-08-24T07:47:37.837Z,1.90
2022-08-24T07:50:26.247Z,1.90
2022-08-24T07:53:23.966Z,1.70
2022-08-24T07:56:16.077Z,1.83
2022-08-24T07:59:13.023Z,1.85
2022-08-24T08:02:00.539Z,1.90
2022-08-24T08:04:54.633Z,1.55
2022-08-24T08:07:42.012Z,1.85
2022-08-24T08:10:36.677Z,1.52
2022-08-24T08:13:24.417Z,1.58
2022-08-24T08:16:18.906Z,1.77
2022-08-24T08:19:13.253Z,1.65
2022-08-24T08:22:13.794Z,1.83
2022-08-24T08:25:04.543Z,1.70
2022-08-24T08:28:04.339Z,2.10
2022-08-24T08:31:00.024Z,1.60
2022-08-24T08:33:55.849Z,2.15
2022-08-24T08:36:43.016Z,1.60
2022-08-24T08:39:37.769Z,1.90
2022-08-24T08:42:33.239Z,1.67
2022-08-24T08:45:32.803Z,1.33
2022-08-24T08:48:26.571Z,1.60
2022-08-24T08:51:40.781Z,1.75
2022-08-24T08:54:43.711Z,1.50
2022-08-24T08:57:54.791Z,1.65
2022-08-24T09:00:45.998Z,1.58
2022-08-24T09:03:59.139Z,1.80
2022-08-24T09:06:55.271Z,1.83
2022-08-24T09:10:10.780Z,1.60
2022-08-24T09:13:07.437Z,1.50
2022-08-24T09:16:00.875Z,1.40
2022-08-24T09:18:54.239Z,1.75
2022-08-24T09:21:52.328Z,1.52
2022-08-24T09:25:00.213Z,1.42
2022-08-24T09:28:06.987Z,1.55
2022-08-24T09:31:20.909Z,1.50
2022-08-24T09:34:33.914Z,1.70
2022-08-24T09:37:30.227Z,1.65
2022-08-24T09:40:29.905Z,1.90
2022-08-24T09:43:29.067Z,1.70
2022-08-24T09:46:29.880Z,1.77
2022-08-24T09:49:25.904Z,1.75
2022-08-24T09:52:29.840Z,1.40
2022-08-24T09:55:23.105Z,1.60
2022-08-24T09:58:25.827Z,1.63
2022-08-24T10:01:24.695Z,1.52
2022-08-24T10:04:28.169Z,2.00
2022-08-24T10:07:24.070Z,1.60
2022-08-24T10:10:36.830Z,1.63
2022-08-24T10:13:31.293Z,1.60
2022-08-24T10:16:27.795Z,1.60
2022-08-24T10:19:17.988Z,1.85
2022-08-24T10:22:14.913Z,1.80
2022-08-24T10:25:14.370Z,2.00
2022-08-24T10:28:23.769Z,2.10
2022-08-24T10:31:24.612Z,2.03
2022-08-24T10:34:36.709Z,2.05
2022-08-24T10:37:24.253Z,2.03
2022-08-24T10:40:36.893Z,1.67
2022-08-24T10:43:36.254Z,2.40
2022-08-24T10:52:37.812Z,1.80
2022-08-24T10:55:36.973Z,2.10
2022-08-24T11:01:39.627Z,1.90
2022-08-24T11:04:33.948Z,1.88
2022-08-24T11:07:29.447Z,1.95
2022-08-24T11:10:27.974Z,2.25
2022-08-24T11:13:15.244Z,1.77
2022-08-24T11:16:20.867Z,1.92
2022-08-24T11:19:12.684Z,1.90
2022-08-24T11:22:12.944Z,1.88
2022-08-24T11:25:11.444Z,2.20
2022-08-24T11:28:06.736Z,1.90
2022-08-24T11:30:58.257Z,2.50
2022-08-24T11:33:54.918Z,2.03
2022-08-24T11:36:43.667Z,2.28
2022-08-24T11:39:54.858Z,1.77
2022-08-24T11:43:05.724Z,1.95
2022-08-24T11:46:19.203Z,2.00
2022-08-24T11:49:31.655Z,1.83
2022-08-24T11:52:35.883Z,2.13
2022-08-24T11:55:25.487Z,1.95
2022-08-24T11:58:19.973Z,2.30
2022-08-24T12:01:08.880Z,2.10
2022-08-24T12:04:28.978Z,2.33
2022-08-24T12:07:18.896Z,2.00
2022-08-24T12:10:36.969Z,2.00
2022-08-24T12:13:26.650Z,1.63
2022-08-24T12:16:44.817Z,1.80
2022-08-24T12:19:39.928Z,2.35
2022-08-24T12:22:34.918Z,2.00
2022-08-24T12:25:24.211Z,2.00
2022-08-24T12:28:19.878Z,1.95
2022-08-24T12:31:07.083Z,1.90
2022-08-24T12:34:03.906Z,1.83
2022-08-24T12:36:59.602Z,1.88
2022-08-24T12:39:55.903Z,1.80
2022-08-24T12:42:49.891Z,1.67
2022-08-24T12:45:46.897Z,2.00
2022-08-24T12:48:44.689Z,1.80
2022-08-24T12:51:45.896Z,1.95
2022-08-24T12:54:33.278Z,2.38
2022-08-24T12:57:26.920Z,2.05
2022-08-24T13:00:16.698Z,2.45
2022-08-24T13:03:10.821Z,1.85
2022-08-24T13:05:59.685Z,1.95
2022-08-24T13:09:04.115Z,1.65
2022-08-24T13:11:53.541Z,1.88
2022-08-24T13:14:56.678Z,1.92
2022-08-24T13:18:03.089Z,2.20
2022-08-24T13:21:16.946Z,1.80
2022-08-24T13:24:04.092Z,1.90
2022-08-24T13:26:57.906Z,1.77
2022-08-24T13:29:50.071Z,2.13
2022-08-24T13:32:47.780Z,1.88
2022-08-24T13:35:56.652Z,1.83
2022-08-24T13:39:02.796Z,2.17
2022-08-24T13:41:52.968Z,2.17
2022-08-24T13:44:52.003Z,1.90
2022-08-24T13:47:45.709Z,1.98
2022-08-24T13:51:05.027Z,2.10
2022-08-24T13:53:54.972Z,2.20
2022-08-24T13:56:51.831Z,2.00
2022-08-24T14:00:06.883Z,2.30
2022-08-24T14:03:06.987Z,2.20
2022-08-24T14:05:57.480Z,2.00
2022-08-24T14:09:11.083Z,2.20
2022-08-24T14:12:08.786Z,2.28
2022-08-24T14:15:14.943Z,1.83
2022-08-24T14:18:22.310Z,2.08
2022-08-24T14:21:24.041Z,2.13
2022-08-24T14:24:29.691Z,2.30
2022-08-24T14:27:35.016Z,2.13
2022-08-24T14:30:45.164Z,1.98
2022-08-24T14:33:40.048Z,2.13
2022-08-24T14:36:33.467Z,2.15
2022-08-24T14:39:31.011Z,1.90
2022-08-24T14:42:24.689Z,2.40
2022-08-24T14:45:31.945Z,2.33
2022-08-24T14:48:37.719Z,2.00
2022-08-24T14:51:34.849Z,1.80
2022-08-24T14:54:31.008Z,1.73
2022-08-24T14:57:30.024Z,2.05
2022-08-24T15:00:25.041Z,2.05
2022-08-24T15:03:19.159Z,1.95
2022-08-24T15:06:27.352Z,2.22
2022-08-24T15:09:31.928Z,2.10
2022-08-24T15:12:31.502Z,2.50
2022-08-24T15:15:34.197Z,1.95
2022-08-24T15:18:44.667Z,2.10
2022-08-24T15:21:44.991Z,1.90
2022-08-24T15:24:35.326Z,2.03
2022-08-24T15:27:42.026Z,2.15
2022-08-24T15:30:38.876Z,1.67
2022-08-24T15:33:40.949Z,1.70
2022-08-24T15:36:34.390Z,1.92
2022-08-24T15:39:29.155Z,2.10
2022-08-24T15:42:16.667Z,1.73
2022-08-24T15:45:12.130Z,2.13
2022-08-24T15:48:07.010Z,2.13
2022-08-24T15:51:06.950Z,1.98
2022-08-24T15:53:54.032Z,1.85
2022-08-24T15:56:47.883Z,1.90
2022-08-24T15:59:45.415Z,1.95
2022-08-24T16:02:57.866Z,2.08
2022-08-24T16:05:51.114Z,2.20
2022-08-24T16:08:44.951Z,2.13
2022-08-24T16:11:46.835Z,2.05
2022-08-24T16:14:58.230Z,2.17
2022-08-24T16:17:26.311Z,1.90
2022-08-24T16:20:05.099Z,2.22
2022-08-24T16:22:33.866Z,2.05
2022-08-24T16:25:45.292Z,2.13
2022-08-24T16:28:43.378Z,2.00
2022-08-24T16:31:36.993Z,2.33
2022-08-24T16:34:36.746Z,1.88
2022-08-24T16:37:30.873Z,1.85
2022-08-24T16:40:18.034Z,1.73
2022-08-24T16:43:11.882Z,2.03
2022-08-24T16:45:59.604Z,2.10
2022-08-24T16:49:00.998Z,1.80
2022-08-24T16:51:48.207Z,1.98
2022-08-24T16:54:42.024Z,2.03
2022-08-24T16:58:05.920Z,2.15
2022-08-24T17:01:00.048Z,2.33
2022-08-24T17:03:47.386Z,1.90
2022-08-24T17:06:41.096Z,1.90
2022-08-24T17:09:28.348Z,2.47
2022-08-24T17:12:22.023Z,2.13
2022-08-24T17:15:09.148Z,2.10
2022-08-24T17:18:03.450Z,1.95
2022-08-24T17:20:51.125Z,2.15
2022-08-24T17:23:45.142Z,2.00
2022-08-24T17:26:33.231Z,2.10
2022-08-24T17:29:30.019Z,2.28
2022-08-24T17:32:17.119Z,2.38
2022-08-24T17:35:11.070Z,2.40
2022-08-24T17:37:58.246Z,2.10
2022-08-24T17:40:53.057Z,2.33
2022-08-24T17:43:40.176Z,1.95
2022-08-24T17:46:36.004Z,2.35
2022-08-24T17:49:31.122Z,2.05
2022-08-24T17:52:24.944Z,2.00
2022-08-24T17:55:12.377Z,2.75
2022-08-24T17:58:06.978Z,2.30
2022-08-24T18:00:54.182Z,2.63
2022-08-24T18:03:48.141Z,2.13
2022-08-24T18:06:35.280Z,2.40
2022-08-24T18:09:31.073Z,2.20
2022-08-24T18:12:22.887Z,2.42
2022-08-24T18:14:57.039Z,2.75
2022-08-24T18:17:31.122Z,2.28
2022-08-24T18:23:00.334Z,2.60
2022-08-24T18:25:28.443Z,2.30
2022-08-24T18:27:56.897Z,2.53
2022-08-24T18:30:36.179Z,2.03
2022-08-24T18:33:05.000Z,2.17
2022-08-24T18:35:32.990Z,2.35
2022-08-24T18:38:06.937Z,2.30
2022-08-24T18:40:34.752Z,2.72
2022-08-24T18:43:04.032Z,2.40
2022-08-24T18:45:40.131Z,2.15
2022-08-24T18:48:07.448Z,2.25
2022-08-24T18:50:40.087Z,2.03
2022-08-24T18:53:16.091Z,2.25
2022-08-24T18:55:46.114Z,2.45
2022-08-24T18:58:13.389Z,2.08
2022-08-24T19:00:47.992Z,1.95
2022-08-24T19:03:27.081Z,2.28
2022-08-24T19:06:01.079Z,2.08
2022-08-24T19:08:28.355Z,2.50
2022-08-24T19:10:56.219Z,2.00
2022-08-24T19:13:30.360Z,2.17
2022-08-24T19:15:58.708Z,2.30
2022-08-24T19:18:26.159Z,2.20
2022-08-24T19:21:01.981Z,2.13
2022-08-24T19:23:31.148Z,2.13
2022-08-24T19:26:05.406Z,2.20
2022-08-24T19:28:33.182Z,2.47
2022-08-24T19:31:01.429Z,2.05
2022-08-24T19:33:43.039Z,2.00
2022-08-24T19:36:10.371Z,2.05
2022-08-24T19:38:37.643Z,2.60
2022-08-24T19:41:14.292Z,2.63
2022-08-24T19:44:00.842Z,2.30
2022-08-24T19:46:35.210Z,2.33
2022-08-24T19:49:02.527Z,2.30
2022-08-24T19:51:29.739Z,2.35
2022-08-24T19:54:04.188Z,2.38
2022-08-24T19:56:31.451Z,2.60
2022-08-24T19:58:58.687Z,2.17
2022-08-24T20:01:36.171Z,2.13
2022-08-24T20:04:06.174Z,2.45
2022-08-24T20:06:34.855Z,2.20
2022-08-24T20:09:09.284Z,2.40
2022-08-24T20:11:36.977Z,2.55
2022-08-24T20:14:04.236Z,2.55
2022-08-24T20:16:43.131Z,2.25
2022-08-24T20:19:11.140Z,2.58
2022-08-24T20:21:52.254Z,2.00
2022-08-24T20:24:25.919Z,2.92
2022-08-24T20:27:00.308Z,2.30
2022-08-24T20:29:27.759Z,2.53
2022-08-24T20:31:57.094Z,2.40
2022-08-24T20:34:32.149Z,2.80
2022-08-24T20:37:00.200Z,2.63
2022-08-24T20:39:28.572Z,2.78
2022-08-24T20:42:03.107Z,2.42
2022-08-24T20:44:30.349Z,2.40
2022-08-24T20:46:57.580Z,2.92
2022-08-24T20:49:34.038Z,2.45
2022-08-24T20:52:01.317Z,2.72
2022-08-24T20:54:28.576Z,2.55
2022-08-24T20:57:02.155Z,2.50
2022-08-24T20:59:29.483Z,2.80
2022-08-24T21:01:56.812Z,3.05
2022-08-24T21:04:31.083Z,2.92
2022-08-24T21:06:58.411Z,2.80
2022-08-24T21:09:25.528Z,3.05
2022-08-24T21:11:59.185Z,2.88
2022-08-24T21:14:26.412Z,3.00
2022-08-24T21:16:53.985Z,2.40
2022-08-24T21:22:02.038Z,2.70
2022-08-24T21:24:36.165Z,3.00
2022-08-24T21:27:04.874Z,3.05
2022-08-24T21:29:32.017Z,3.67
2022-08-24T21:32:25.333Z,2.78
2022-08-24T21:34:52.672Z,3.00
2022-08-24T21:37:20.197Z,3.33
2022-08-24T21:39:55.030Z,3.00
2022-08-24T21:42:28.948Z,2.88
2022-08-24T21:45:05.079Z,3.15
2022-08-24T21:47:38.863Z,3.00
2022-08-24T21:50:13.253Z,3.42
2022-08-24T21:52:41.521Z,3.17
2022-08-24T21:55:11.711Z,4.03
2022-08-24T21:57:49.224Z,3.28
2022-08-24T22:00:18.687Z,3.67
2022-08-24T22:02:48.016Z,3.10
2022-08-24T22:05:23.192Z,3.72
2022-08-24T22:07:52.882Z,3.22
2022-08-24T22:10:20.252Z,3.30
2022-08-24T22:12:54.137Z,3.95
2022-08-24T22:15:23.305Z,3.15
2022-08-24T22:17:52.767Z,3.28
2022-08-24T23:22:57.363Z,3.92
2022-08-24T23:25:24.523Z,4.72
2022-08-24T23:27:52.201Z,4.47
2022-08-24T23:32:53.644Z,4.53
2022-08-24T23:35:20.800Z,4.45
2022-08-24T23:37:54.452Z,4.82
2022-08-24T23:40:21.792Z,4.50
2022-08-24T23:42:48.943Z,4.20
2022-08-24T23:45:28.004Z,4.03
2022-08-24T23:47:57.289Z,3.90
2022-08-24T23:50:31.549Z,4.07
2022-08-24T23:52:58.815Z,4.82
2022-08-24T23:55:26.013Z,4.38
2022-08-24T23:58:00.733Z,4.85
